createdAt,value
2022-09-30T00:00:23.185Z,99662.56
2022-09-30T00:02:49.871Z,99672.22
2022-09-30T00:05:16.684Z,99672.22
2022-09-30T00:07:43.727Z,99670.84
2022-09-30T00:10:10.606Z,99671.88
2022-09-30T00:12:37.401Z,99666.81
2022-09-30T00:15:04.454Z,99668.94
2022-09-30T00:17:31.388Z,99674.66
2022-09-30T00:19:58.086Z,99673.00
2022-09-30T00:22:24.755Z,99668.22
2022-09-30T00:24:51.478Z,99673.28
2022-09-30T00:27:18.171Z,99678.69
2022-09-30T00:29:45.297Z,99673.78
2022-09-30T00:32:11.936Z,99674.81
2022-09-30T00:34:38.666Z,99685.06
2022-09-30T00:37:05.868Z,99677.88
2022-09-30T00:39:32.627Z,99672.75
2022-09-30T00:42:01.923Z,99674.88
2022-09-30T00:44:50.954Z,99679.19
2022-09-30T00:47:32.478Z,99678.59
2022-09-30T00:50:04.955Z,99683.47
2022-09-30T00:52:33.833Z,99677.00
2022-09-30T00:55:04.715Z,99670.31
2022-09-30T00:57:31.530Z,99675.66
2022-09-30T00:59:58.253Z,99676.97
2022-09-30T01:02:25.093Z,99674.28
2022-09-30T01:04:54.838Z,99678.59
2022-09-30T01:07:23.301Z,99671.31
2022-09-30T01:09:51.133Z,99667.22
2022-09-30T01:12:23.090Z,99675.31
2022-09-30T01:14:53.502Z,99674.47
2022-09-30T01:18:10.156Z,99683.09
2022-09-30T01:21:13.593Z,99682.50
2022-09-30T01:23:51.691Z,99683.25
2022-09-30T01:26:50.104Z,99688.09
2022-09-30T01:29:38.244Z,99687.63
2022-09-30T01:32:40.225Z,99695.72
2022-09-30T01:35:28.802Z,99686.59
2022-09-30T01:38:29.286Z,99696.00
2022-09-30T01:41:05.759Z,99694.66
2022-09-30T01:43:41.296Z,99692.25
2022-09-30T01:46:31.117Z,99696.81
2022-09-30T01:49:21.554Z,99698.97
2022-09-30T01:52:19.177Z,99697.38
2022-09-30T01:55:13.483Z,99698.91
2022-09-30T01:57:45.560Z,99711.81
2022-09-30T02:00:13.771Z,99722.28
2022-09-30T02:02:51.945Z,99719.63
2022-09-30T02:05:46.850Z,99719.91
2022-09-30T02:08:16.819Z,99716.66
2022-09-30T02:11:02.335Z,99717.78
2022-09-30T02:13:36.033Z,99726.47
2022-09-30T02:16:39.875Z,99723.72
2022-09-30T02:19:30.069Z,99718.09
2022-09-30T02:22:16.401Z,99721.56
2022-09-30T02:24:45.994Z,99726.47
2022-09-30T02:27:28.162Z,99723.81
2022-09-30T02:30:00.350Z,99720.53
2022-09-30T02:32:35.666Z,99728.34
2022-09-30T02:35:20.022Z,99722.16
2022-09-30T02:37:52.808Z,99724.28
2022-09-30T02:40:43.737Z,99722.38
2022-09-30T02:43:10.772Z,99732.53
2022-09-30T02:45:47.754Z,99732.25
2022-09-30T02:48:34.416Z,99740.31
2022-09-30T02:51:11.219Z,99729.56
2022-09-30T02:53:58.064Z,99735.38
2022-09-30T02:56:24.601Z,99742.41
2022-09-30T02:58:52.830Z,99738.94
2022-09-30T03:01:20.134Z,99748.59
2022-09-30T03:03:53.938Z,99749.47
2022-09-30T03:06:21.233Z,99751.59
2022-09-30T03:08:47.997Z,99751.56
2022-09-30T03:11:21.611Z,99752.97
2022-09-30T03:13:54.349Z,99751.00
2022-09-30T03:16:48.782Z,99745.63
2022-09-30T03:19:33.706Z,99756.91
2022-09-30T03:22:19.215Z,99758.78
2022-09-30T03:25:21.333Z,99768.03
2022-09-30T03:28:07.166Z,99768.09
2022-09-30T03:30:41.285Z,99757.91
2022-09-30T03:33:20.800Z,99747.94
2022-09-30T03:35:52.479Z,99749.22
2022-09-30T03:39:01.699Z,99742.69
2022-09-30T03:41:38.395Z,99744.97
2022-09-30T03:44:11.160Z,99753.31
2022-09-30T03:46:46.527Z,99754.50
2022-09-30T03:49:20.151Z,99753.41
2022-09-30T03:51:46.924Z,99751.78
2022-09-30T03:54:14.505Z,99758.53
2022-09-30T03:56:44.125Z,99765.75
2022-09-30T03:59:15.861Z,99764.66
2022-09-30T04:01:42.608Z,99759.88
2022-09-30T04:04:09.242Z,99768.44
2022-09-30T04:06:35.909Z,99768.97
2022-09-30T04:09:02.752Z,99769.97
2022-09-30T04:11:29.686Z,99769.44
2022-09-30T04:13:56.637Z,99772.78
2022-09-30T04:16:23.404Z,99781.31
2022-09-30T04:18:50.634Z,99788.28
2022-09-30T04:21:17.310Z,99788.84
2022-09-30T04:23:44.450Z,99788.28
2022-09-30T04:26:13.312Z,99791.25
2022-09-30T04:28:40.026Z,99797.06
2022-09-30T04:31:07.494Z,99793.31
2022-09-30T04:33:34.326Z,99803.25
2022-09-30T04:36:01.809Z,99797.88
2022-09-30T04:38:29.135Z,99797.91
2022-09-30T04:40:56.182Z,99801.53
2022-09-30T04:43:24.082Z,99801.28
2022-09-30T04:45:52.647Z,99803.22
2022-09-30T04:48:22.510Z,99814.84
2022-09-30T04:50:49.494Z,99814.63
2022-09-30T04:53:17.420Z,99820.72
2022-09-30T04:55:45.584Z,99815.44
2022-09-30T04:58:12.782Z,99827.00
2022-09-30T05:00:39.551Z,99830.41
2022-09-30T05:03:06.317Z,99832.72
2022-09-30T05:05:33.648Z,99834.53
2022-09-30T05:08:04.854Z,99837.16
2022-09-30T05:10:31.805Z,99840.16
2022-09-30T05:12:58.646Z,99852.97
2022-09-30T05:15:25.913Z,99854.97
2022-09-30T05:17:53.521Z,99857.38
2022-09-30T05:20:21.477Z,99852.53
2022-09-30T05:22:54.018Z,99856.28
2022-09-30T05:25:20.742Z,99853.88
2022-09-30T05:27:51.190Z,99860.56
2022-09-30T05:30:18.046Z,99869.75
2022-09-30T05:32:44.865Z,99872.22
2022-09-30T05:35:12.220Z,99873.28
2022-09-30T05:37:39.051Z,99877.38
2022-09-30T05:40:07.338Z,99876.47
2022-09-30T05:42:35.878Z,99881.13
2022-09-30T05:45:06.892Z,99882.47
2022-09-30T05:47:34.222Z,99889.25
2022-09-30T05:50:01.001Z,99897.69
2022-09-30T05:52:28.286Z,99900.84
2022-09-30T05:54:56.332Z,99906.19
2022-09-30T05:57:23.078Z,99923.97
2022-09-30T05:59:50.544Z,99922.22
2022-09-30T06:02:17.259Z,99928.38
2022-09-30T06:04:43.991Z,99932.84
2022-09-30T06:07:10.859Z,99924.22
2022-09-30T06:09:37.688Z,99931.72
2022-09-30T06:12:06.151Z,99931.97
2022-09-30T06:14:32.906Z,99940.59
2022-09-30T06:17:00.518Z,99942.53
2022-09-30T06:19:28.870Z,99941.22
2022-09-30T06:21:55.810Z,99939.28
2022-09-30T06:24:22.522Z,99936.34
2022-09-30T06:26:49.221Z,99940.78
2022-09-30T06:29:15.804Z,99949.25
2022-09-30T06:31:42.436Z,99944.13
2022-09-30T06:34:09.448Z,99946.56
2022-09-30T06:36:36.154Z,99955.44
2022-09-30T06:39:04.762Z,99964.72
2022-09-30T06:41:31.561Z,99966.00
2022-09-30T06:43:59.296Z,99960.94
2022-09-30T06:46:30.503Z,99966.94
2022-09-30T06:49:10.679Z,99968.16
2022-09-30T06:51:40.161Z,99982.97
2022-09-30T06:54:09.011Z,99980.72
2022-09-30T06:56:36.876Z,99988.81
2022-09-30T06:59:04.548Z,99980.38
2022-09-30T07:01:31.158Z,99981.38
2022-09-30T07:03:58.149Z,99992.28
2022-09-30T07:06:28.470Z,99991.47
2022-09-30T07:08:56.789Z,99992.09
2022-09-30T07:11:24.715Z,99989.66
2022-09-30T07:13:51.647Z,99989.63
2022-09-30T07:16:21.165Z,99997.09
2022-09-30T07:18:47.879Z,99987.34
2022-09-30T07:21:16.166Z,99998.22
2022-09-30T07:23:47.868Z,99997.47
2022-09-30T07:26:20.465Z,100008.41
2022-09-30T07:28:47.633Z,100012.25
2022-09-30T07:31:34.141Z,100009.59
2022-09-30T07:34:07.471Z,100021.03
2022-09-30T07:36:35.552Z,100017.16
2022-09-30T07:39:05.334Z,100009.63
2022-09-30T07:41:34.500Z,100007.19
2022-09-30T07:44:01.432Z,100015.16
2022-09-30T07:46:32.949Z,100022.47
2022-09-30T07:49:02.158Z,100035.22
2022-09-30T07:51:38.364Z,100022.91
2022-09-30T07:54:12.576Z,100023.31
2022-09-30T07:59:28.769Z,100035.38
2022-09-30T08:01:56.065Z,100046.25
2022-09-30T08:04:24.224Z,100039.50
2022-09-30T08:06:53.967Z,100045.63
2022-09-30T08:09:23.045Z,100039.84
2022-09-30T08:11:50.045Z,100041.34
2022-09-30T08:14:21.842Z,100044.16
2022-09-30T08:16:49.633Z,100059.63
2022-09-30T08:19:24.568Z,100059.22
2022-09-30T08:21:53.993Z,100057.69
2022-09-30T08:24:22.089Z,100063.13
2022-09-30T08:26:48.991Z,100058.63
2022-09-30T08:29:20.640Z,100065.72
2022-09-30T08:31:52.580Z,100063.91
2022-09-30T08:34:19.567Z,100062.28
2022-09-30T08:36:46.562Z,100067.66
2022-09-30T08:39:13.912Z,100074.09
2022-09-30T08:41:49.756Z,100082.50
2022-09-30T08:44:25.441Z,100086.28
2022-09-30T08:47:25.326Z,100081.47
2022-09-30T08:50:22.209Z,100079.88
2022-09-30T08:52:53.812Z,100067.47
2022-09-30T08:55:26.243Z,100067.44
2022-09-30T08:57:56.004Z,100068.25
2022-09-30T09:00:23.220Z,100058.53
2022-09-30T09:02:54.974Z,100063.38
2022-09-30T09:05:48.533Z,100067.97
2022-09-30T09:08:49.030Z,100076.06
2022-09-30T09:11:37.787Z,100071.47
2022-09-30T09:14:53.019Z,100077.41
2022-09-30T09:18:22.518Z,100086.06
2022-09-30T09:20:56.300Z,100078.50
2022-09-30T09:23:23.856Z,100083.63
2022-09-30T09:25:55.777Z,100076.84
2022-09-30T09:28:33.688Z,100074.31
2022-09-30T09:31:01.403Z,100074.91
2022-09-30T09:33:31.254Z,100083.81
2022-09-30T09:36:00.961Z,100074.84
2022-09-30T09:38:52.956Z,100069.69
2022-09-30T09:41:34.722Z,100081.28
2022-09-30T09:44:14.457Z,100071.84
2022-09-30T09:46:46.481Z,100075.78
2022-09-30T09:49:17.998Z,100079.25
2022-09-30T09:51:51.123Z,100080.34
2022-09-30T09:54:21.030Z,100094.41
2022-09-30T09:56:47.709Z,100091.84
2022-09-30T09:59:19.492Z,100084.81
2022-09-30T10:01:52.786Z,100084.47
2022-09-30T10:04:26.560Z,100087.69
2022-09-30T10:07:02.343Z,100080.41
2022-09-30T10:09:39.284Z,100078.03
2022-09-30T10:12:05.825Z,100081.47
2022-09-30T10:14:35.542Z,100082.38
2022-09-30T10:17:04.743Z,100077.69
2022-09-30T10:19:34.623Z,100072.28
2022-09-30T10:22:11.792Z,100076.03
2022-09-30T10:24:39.672Z,100061.56
2022-09-30T10:27:32.701Z,100067.06
2022-09-30T10:29:59.355Z,100072.94
2022-09-30T10:32:27.404Z,100071.75
2022-09-30T10:35:04.113Z,100071.69
2022-09-30T10:37:31.002Z,100078.03
2022-09-30T10:40:06.441Z,100065.19
2022-09-30T10:42:35.990Z,100073.63
2022-09-30T10:45:16.365Z,100063.44
2022-09-30T10:47:46.245Z,100069.03
2022-09-30T10:50:16.512Z,100066.44
2022-09-30T10:52:59.226Z,100056.94
2022-09-30T10:55:32.597Z,100059.81
2022-09-30T10:58:19.283Z,100054.03
2022-09-30T11:00:49.992Z,100054.22
2022-09-30T11:03:34.646Z,100052.75
2022-09-30T11:06:01.685Z,100047.94
2022-09-30T11:09:01.793Z,100059.53
2022-09-30T11:11:38.142Z,100053.06
2022-09-30T11:14:11.129Z,100064.06
2022-09-30T11:17:20.387Z,100057.41
2022-09-30T11:20:13.055Z,100066.00
2022-09-30T11:22:52.773Z,100068.59
2022-09-30T11:25:29.760Z,100062.09
2022-09-30T11:28:22.916Z,100061.50
2022-09-30T11:31:19.107Z,100057.19
2022-09-30T11:33:58.690Z,100053.53
2022-09-30T11:36:47.665Z,100059.16
2022-09-30T11:39:48.360Z,100052.44
2022-09-30T11:42:56.842Z,100053.53
2022-09-30T11:45:54.109Z,100049.00
2022-09-30T11:48:56.008Z,100053.56
2022-09-30T11:51:46.321Z,100056.78
2022-09-30T11:54:41.905Z,100051.75
2022-09-30T11:57:24.659Z,100057.56
2022-09-30T12:00:07.846Z,100049.56
2022-09-30T12:02:50.221Z,100060.97
2022-09-30T12:05:19.859Z,100062.84
2022-09-30T12:07:52.508Z,100060.47
2022-09-30T12:10:22.289Z,100069.28
2022-09-30T12:12:58.838Z,100055.28
2022-09-30T12:15:27.386Z,100052.00
2022-09-30T12:18:12.558Z,100053.56
2022-09-30T12:20:47.796Z,100056.66
2022-09-30T12:23:20.785Z,100064.88
2022-09-30T12:25:54.530Z,100069.28
2022-09-30T12:28:49.128Z,100060.97
2022-09-30T12:32:12.899Z,100065.47
2022-09-30T12:34:45.658Z,100070.28
2022-09-30T12:37:44.416Z,100069.84
2022-09-30T12:40:52.438Z,100072.78
2022-09-30T12:43:51.471Z,100070.56
2022-09-30T12:46:30.726Z,100064.72
2022-09-30T12:49:05.783Z,100069.28
2022-09-30T12:51:34.462Z,100077.38
2022-09-30T12:54:22.020Z,100064.34
2022-09-30T12:56:56.929Z,100064.72
2022-09-30T12:59:28.223Z,100067.69
2022-09-30T13:01:57.722Z,100078.66
2022-09-30T13:04:39.574Z,100070.97
2022-09-30T13:07:13.204Z,100069.66
2022-09-30T13:09:58.313Z,100066.81
2022-09-30T13:12:29.355Z,100066.84
2022-09-30T13:15:28.445Z,100072.81
2022-09-30T13:18:25.295Z,100066.81
2022-09-30T13:21:10.675Z,100073.28
2022-09-30T13:23:37.317Z,100079.06
2022-09-30T13:26:26.051Z,100079.19
2022-09-30T13:29:02.134Z,100090.78
2022-09-30T13:31:52.990Z,100085.63
2022-09-30T13:34:33.732Z,100083.28
2022-09-30T13:37:03.373Z,100088.53
2022-09-30T13:39:48.625Z,100085.81
2022-09-30T13:42:26.787Z,100076.81
2022-09-30T13:45:10.622Z,100077.22
2022-09-30T13:47:43.635Z,100076.72
2022-09-30T13:50:18.826Z,100074.81
2022-09-30T13:52:53.705Z,100064.66
2022-09-30T13:55:25.347Z,100084.84
2022-09-30T13:58:00.132Z,100075.97
2022-09-30T14:00:39.705Z,100081.25
2022-09-30T14:03:21.354Z,100082.16
2022-09-30T14:06:04.544Z,100071.63
2022-09-30T14:08:50.324Z,100067.66
2022-09-30T14:11:32.215Z,100083.69
2022-09-30T14:14:11.970Z,100074.41
2022-09-30T14:17:01.186Z,100069.25
2022-09-30T14:20:03.275Z,100064.84
2022-09-30T14:22:30.507Z,100064.56
2022-09-30T14:24:57.806Z,100067.38
2022-09-30T14:27:39.530Z,100074.72
2022-09-30T14:30:14.425Z,100066.13
2022-09-30T14:32:54.234Z,100068.19
2022-09-30T14:35:24.080Z,100060.41
2022-09-30T14:38:01.877Z,100061.75
2022-09-30T14:40:34.671Z,100068.28
2022-09-30T14:43:04.887Z,100064.28
2022-09-30T14:45:35.464Z,100067.16
2022-09-30T14:48:18.345Z,100065.63
2022-09-30T14:50:54.090Z,100071.66
2022-09-30T14:53:26.161Z,100074.44
2022-09-30T14:55:53.293Z,100068.88
2022-09-30T14:58:31.138Z,100075.91
2022-09-30T15:01:12.069Z,100071.13
2022-09-30T15:03:41.481Z,100064.88
2022-09-30T15:06:19.421Z,100066.84
2022-09-30T15:08:47.044Z,100062.31
2022-09-30T15:11:21.960Z,100063.94
2022-09-30T15:13:52.808Z,100066.44
2022-09-30T15:16:27.418Z,100065.06
2022-09-30T15:18:54.480Z,100062.19
2022-09-30T15:21:23.786Z,100060.75
2022-09-30T15:23:56.410Z,100055.63
2022-09-30T15:26:25.291Z,100057.59
2022-09-30T15:28:52.121Z,100057.78
2022-09-30T15:31:24.355Z,100058.13
2022-09-30T15:34:05.178Z,100061.97
2022-09-30T15:36:32.518Z,100051.41
2022-09-30T15:38:59.518Z,100056.28
2022-09-30T15:41:26.528Z,100050.00
2022-09-30T15:43:54.008Z,100041.44
2022-09-30T15:46:26.821Z,100041.00
2022-09-30T15:48:59.604Z,100040.69
2022-09-30T15:51:32.270Z,100043.53
2022-09-30T15:54:01.208Z,100049.75
2022-09-30T15:56:36.732Z,100046.69
2022-09-30T15:59:05.174Z,100046.50
2022-09-30T16:01:43.954Z,100048.78
2022-09-30T16:04:17.132Z,100041.50
2022-09-30T16:06:45.681Z,100048.59
2022-09-30T16:09:18.401Z,100042.09
2022-09-30T16:11:50.013Z,100041.47
2022-09-30T16:14:23.949Z,100041.22
2022-09-30T16:16:56.565Z,100031.25
2022-09-30T16:19:25.226Z,100035.44
2022-09-30T16:21:54.644Z,100040.06
2022-09-30T16:24:21.298Z,100039.22
2022-09-30T16:26:52.669Z,100050.28
2022-09-30T16:29:19.682Z,100041.00
2022-09-30T16:31:53.169Z,100041.56
2022-09-30T16:34:29.106Z,100040.56
2022-09-30T16:37:11.541Z,100036.38
2022-09-30T16:39:38.264Z,100041.28
2022-09-30T16:42:04.981Z,100051.56
2022-09-30T16:44:35.452Z,100042.47
2022-09-30T16:47:02.626Z,100050.09
2022-09-30T16:49:29.433Z,100046.00
2022-09-30T16:51:56.062Z,100049.09
2022-09-30T16:54:22.726Z,100048.13
2022-09-30T16:56:49.443Z,100051.00
2022-09-30T16:59:18.105Z,100050.75
2022-09-30T17:01:44.722Z,100054.88
2022-09-30T17:04:14.164Z,100054.59
2022-09-30T17:06:43.840Z,100059.78
2022-09-30T17:09:10.512Z,100068.22
2022-09-30T17:11:38.153Z,100065.53
2022-09-30T17:14:05.967Z,100060.38
2022-09-30T17:16:34.092Z,100075.88
2022-09-30T17:19:01.029Z,100073.19
2022-09-30T17:21:28.217Z,100083.47
2022-09-30T17:23:55.618Z,100079.16
2022-09-30T17:26:22.712Z,100085.16
2022-09-30T17:28:49.327Z,100075.72
2022-09-30T17:31:16.117Z,100086.81
2022-09-30T17:33:42.879Z,100081.41
2022-09-30T17:36:12.074Z,100088.19
2022-09-30T17:38:39.428Z,100087.91
2022-09-30T17:41:26.190Z,100087.91
2022-09-30T17:43:53.029Z,100093.91
2022-09-30T17:46:22.887Z,100092.31
2022-09-30T17:48:50.756Z,100098.28
2022-09-30T17:51:17.509Z,100102.03
2022-09-30T17:53:45.377Z,100099.34
2022-09-30T17:56:19.258Z,100102.06
2022-09-30T17:58:48.799Z,100101.78
2022-09-30T18:01:17.526Z,100101.00
2022-09-30T18:03:47.886Z,100106.44
2022-09-30T18:06:14.636Z,100113.47
2022-09-30T18:08:41.540Z,100108.06
2022-09-30T18:11:08.331Z,100121.56
2022-09-30T18:13:35.483Z,100124.06
2022-09-30T18:16:06.723Z,100127.81
2022-09-30T18:18:36.275Z,100128.16
2022-09-30T18:21:03.239Z,100128.94
2022-09-30T18:23:29.977Z,100131.66
2022-09-30T18:25:57.906Z,100139.47
2022-09-30T18:28:24.689Z,100148.19
2022-09-30T18:30:51.523Z,100143.31
2022-09-30T18:33:21.299Z,100141.97
2022-09-30T18:35:48.402Z,100141.97
2022-09-30T18:38:15.065Z,100149.03
2022-09-30T18:40:46.123Z,100144.69
2022-09-30T18:43:14.353Z,100140.09
2022-09-30T18:45:43.529Z,100147.66
2022-09-30T18:48:11.047Z,100145.53
2022-09-30T18:50:38.711Z,100142.81
2022-09-30T18:53:09.869Z,100140.66
2022-09-30T18:55:38.322Z,100140.13
2022-09-30T18:58:05.576Z,100137.94
2022-09-30T19:00:32.522Z,100133.63
2022-09-30T19:02:59.266Z,100122.81
2022-09-30T19:05:26.139Z,100126.06
2022-09-30T19:07:53.897Z,100114.16
2022-09-30T19:10:20.785Z,100125.50
2022-09-30T19:12:47.563Z,100122.25
2022-09-30T19:15:18.084Z,100128.50
2022-09-30T19:17:45.956Z,100123.34
2022-09-30T19:20:15.248Z,100121.75
2022-09-30T19:22:42.180Z,100128.75
2022-09-30T19:25:11.753Z,100121.19
2022-09-30T19:27:41.164Z,100120.38
2022-09-30T19:30:12.885Z,100120.91
2022-09-30T19:32:40.197Z,100131.47
2022-09-30T19:35:10.211Z,100127.16
2022-09-30T19:37:38.161Z,100142.25
2022-09-30T19:40:20.156Z,100136.84
2022-09-30T19:42:48.334Z,100133.84
2022-09-30T19:45:16.428Z,100133.59
2022-09-30T19:47:43.416Z,100122.50
2022-09-30T19:50:10.144Z,100118.75
2022-09-30T19:52:42.870Z,100127.63
2022-09-30T19:55:16.933Z,100133.56
2022-09-30T19:57:43.744Z,100131.47
2022-09-30T20:00:12.848Z,100131.72
2022-09-30T20:02:39.540Z,100134.69
2022-09-30T20:05:07.286Z,100131.16
2022-09-30T20:07:35.016Z,100131.97
2022-09-30T20:10:01.977Z,100138.97
2022-09-30T20:12:30.162Z,100138.44
2022-09-30T20:15:15.275Z,100139.75
2022-09-30T20:17:42.018Z,100137.59
2022-09-30T20:20:27.857Z,100145.44
2022-09-30T20:22:54.622Z,100145.69
2022-09-30T20:25:21.553Z,100148.94
2022-09-30T20:27:52.169Z,100152.69
2022-09-30T20:30:19.933Z,100147.00
2022-09-30T20:32:46.632Z,100156.19
2022-09-30T20:35:13.831Z,100152.41
2022-09-30T20:37:40.828Z,100150.78
2022-09-30T20:40:09.418Z,100149.13
2022-09-30T20:42:40.396Z,100151.31
2022-09-30T20:45:10.292Z,100160.72
2022-09-30T20:47:38.638Z,100152.88
2022-09-30T20:50:06.749Z,100150.19
2022-09-30T20:52:33.407Z,100150.19
2022-09-30T20:55:00.193Z,100151.81
2022-09-30T20:57:31.289Z,100158.00
2022-09-30T20:59:59.859Z,100168.75
2022-09-30T21:02:30.304Z,100176.81
2022-09-30T21:05:03.794Z,100171.09
2022-09-30T21:07:30.917Z,100178.06
2022-09-30T21:09:57.552Z,100192.41
2022-09-30T21:12:24.304Z,100190.50
2022-09-30T21:14:51.020Z,100191.28
2022-09-30T21:17:17.724Z,100193.75
2022-09-30T21:19:44.374Z,100200.13
2022-09-30T21:22:11.158Z,100193.38
2022-09-30T21:24:37.826Z,100188.34
2022-09-30T21:27:05.978Z,100176.72
2022-09-30T21:29:32.997Z,100190.22
2022-09-30T21:32:00.178Z,100190.94
2022-09-30T21:34:27.224Z,100183.00
2022-09-30T21:36:53.928Z,100182.38
2022-09-30T21:39:20.717Z,100173.00
2022-09-30T21:41:47.535Z,100164.97
2022-09-30T21:44:15.296Z,100152.13
2022-09-30T21:46:47.338Z,100154.56
2022-09-30T21:49:17.542Z,100155.97
2022-09-30T21:51:44.524Z,100154.94
2022-09-30T21:54:13.587Z,100158.03
2022-09-30T21:56:42.618Z,100152.88
2022-09-30T21:59:10.379Z,100150.13
2022-09-30T22:01:37.431Z,100149.44
2022-09-30T22:04:05.492Z,100138.84
2022-09-30T22:06:32.134Z,100131.47
2022-09-30T22:09:01.427Z,100135.66
2022-09-30T22:11:30.211Z,100133.78
2022-09-30T22:13:59.099Z,100132.34
2022-09-30T22:16:29.542Z,100148.81
2022-09-30T22:19:01.333Z,100157.50
2022-09-30T22:21:31.866Z,100150.31
2022-09-30T22:24:00.189Z,100147.72
2022-09-30T22:26:27.091Z,100148.59
2022-09-30T22:29:02.236Z,100149.78
2022-09-30T22:31:31.225Z,100149.72
2022-09-30T22:34:34.000Z,100148.97
2022-09-30T22:37:19.518Z,100150.75
2022-09-30T22:39:46.180Z,100149.25
2022-09-30T22:42:12.888Z,100141.16
2022-09-30T22:44:41.979Z,100142.16
2022-09-30T22:47:10.048Z,100145.03
2022-09-30T22:49:36.736Z,100136.13
2022-09-30T22:52:04.059Z,100137.09
2022-09-30T22:54:30.951Z,100133.88
2022-09-30T22:56:59.289Z,100132.69
2022-09-30T22:59:28.271Z,100144.66
2022-09-30T23:01:56.023Z,100142.75
2022-09-30T23:04:24.738Z,100144.22
2022-09-30T23:06:52.455Z,100143.09
2022-09-30T23:09:23.036Z,100137.91
2022-09-30T23:11:53.498Z,100137.84
2022-09-30T23:14:23.329Z,100145.97
2022-09-30T23:16:50.753Z,100147.13
2022-09-30T23:19:17.997Z,100137.38
2022-09-30T23:21:44.685Z,100138.41
2022-09-30T23:24:12.116Z,100132.69
2022-09-30T23:26:39.532Z,100133.03
2022-09-30T23:29:10.226Z,100129.59
2022-09-30T23:31:37.472Z,100131.47
2022-09-30T23:34:04.785Z,100142.72
2022-09-30T23:36:33.939Z,100140.03
2022-09-30T23:39:08.133Z,100142.03
2022-09-30T23:41:35.133Z,100138.38
2022-09-30T23:44:02.476Z,100126.00
2022-09-30T23:46:29.173Z,100133.16
2022-09-30T23:48:55.908Z,100130.91
2022-09-30T23:51:22.673Z,100133.84
2022-09-30T23:53:49.613Z,100131.84
2022-09-30T23:56:18.617Z,100134.50
2022-09-30T23:58:46.262Z,100124.22
